Gruetli Laager, TN (37339)

3:03 PM CDT on August 30, 2014 (GMT -0500)
Altamont | Change Station
CLOSE
Current Station
Personal Weather Station
Location: Altamont, TN
Elevation: 1850 ft
Nearby Weather Stations

Elev 1850 ft 35.44 °N, 85.72 °W | Updated 3 minutes ago

Mostly Cloudy
Mostly Cloudy
81.2 °F
Feels Like 87 °F
N
0.0
Wind Variable Wind from NE
Gusts 0.0 mph

Today
High -- | Low -- °F
--% Chance of Precip.
Yesterday
High -- | Low -- °F
Precip. -- in
6:13 AM 7:12 PM
Waxing Crescent, 24% visible
Pressure 30.08 in
Visibility 10.0 miles
Clouds Few 3200 ft
Heat Index 87 °F
Dew Point 75 °F
Humidity 82%
Rainfall 0.00 in
Snow Depth Not available.
UV 1.7 out of 12
Pollen 8.90 out of 12
Ozone Good
PM2.5 Moderate
Flu Activity Not available.
METAR KBGF 301915Z AUTO VRB05KT 10SM FEW032 31/23 A3008 RMK

More Conditions Fewer Conditions

Pressure 30.08 in
Visibility 10.0 miles
Clouds Few 3200 ft
Heat Index 87 °F
Dew Point 75 °F
Humidity 82%
Rainfall 0.00 in
Snow Depth Not available.
UV 1.7 out of 12
Pollen 8.90 out of 12
Ozone Good
PM2.5 Moderate
Flu Activity Not available.
METAR KBGF 301915Z AUTO VRB05KT 10SM FEW032 31/23 A3008 RMK

More Conditions Fewer Conditions

10-Day Weather Forecast

Almanac

Astronomy

Aug. 30, 2014 Rise Set
Actual Time 6:13 AM CDT 7:12 PM CDT
Civil Twilight 5:47 AM CDT 7:38 PM CDT
Nautical Twilight 5:16 AM CDT 8:09 PM CDT
Astronomical Twilight 4:44 AM CDT 8:41 PM CDT
Moon 10:49 AM CDT 9:58 PM CDT
Length of Visible Light 13h 50m
Length of Day
12h 58m
Tomorrow will be 2m 8s shorter.
Waxing Crescent, 24% of the Moon is Illuminated
Today
Waxing Crescent
Sep 2
First Quarter
Sep 8
Full
Sep 15
Last Quarter
Sep 24
New

Today's Extremes

State Highs State Lows

Community

WunderPhotos

Upload Photos

1,748,620 photos uploaded!

WunderBlogs® & News

Nearby

Air Quality

  Air Quality AQ Index Pollutant
Yesterday Moderate
OZONE
Yesterday Moderate
PM2.5
Current Moderate
PM2.5
Current Good
OZONE
Saturday Moderate
PM2.5
Saturday Moderate
OZONE
Sunday Moderate
PM2.5
Sunday Good
OZONE
Monday Moderate
PM2.5
Monday Moderate
OZONE

Snow Depth

Station Depth Elevation
No new snow has been reported.

Earthquake Activity

City Distance Mag. Time & Date
No recent earthquake activity has been reported nearby.
Minimum magnitude displayed is 2.5.

Coastal Water Temperatures

Place Temperature
No Stations Reporting

Nearby Weather Stations